createdAt,value
2022-09-16T00:03:22.562Z,8.00
2022-09-16T00:08:24.818Z,8.50
2022-09-16T00:13:27.034Z,7.10
2022-09-16T00:18:29.337Z,8.10
2022-09-16T00:23:31.541Z,7.03
2022-09-16T00:28:33.748Z,7.13
2022-09-16T00:33:35.935Z,5.53
2022-09-16T00:38:38.269Z,10.30
2022-09-16T00:43:59.724Z,6.90
2022-09-16T00:49:10.494Z,8.03
2022-09-16T00:54:12.910Z,6.37
2022-09-16T00:59:19.703Z,7.10
2022-09-16T01:04:35.307Z,6.50
2022-09-16T01:09:39.718Z,8.57
2022-09-16T01:14:54.518Z,8.00
2022-09-16T01:19:59.435Z,9.90
2022-09-16T01:25:41.158Z,5.43
2022-09-16T01:31:08.858Z,8.00
2022-09-16T01:36:21.047Z,6.70
2022-09-16T01:41:35.772Z,6.23
2022-09-16T01:46:52.226Z,9.37
2022-09-16T01:52:05.954Z,6.73
2022-09-16T01:57:23.945Z,8.90
2022-09-16T02:02:38.813Z,7.73
2022-09-16T02:07:44.286Z,6.67
2022-09-16T02:12:47.661Z,8.40
2022-09-16T02:18:01.007Z,7.57
2022-09-16T02:23:09.560Z,8.73
2022-09-16T02:28:17.321Z,10.00
2022-09-16T02:33:20.517Z,7.33
2022-09-16T02:38:29.711Z,13.17
2022-09-16T02:43:32.024Z,8.07
2022-09-16T02:48:41.151Z,7.73
2022-09-16T02:54:10.076Z,12.33
2022-09-16T02:59:13.248Z,8.20
2022-09-16T03:04:18.622Z,7.33
2022-09-16T03:09:24.268Z,8.93
2022-09-16T03:14:36.837Z,10.47
2022-09-16T03:19:41.631Z,8.70
2022-09-16T03:24:50.172Z,6.97
2022-09-16T03:30:02.571Z,9.03
2022-09-16T03:35:22.593Z,9.93
2022-09-16T03:40:26.611Z,13.23
2022-09-16T03:45:28.906Z,11.87
2022-09-16T03:50:31.078Z,14.50
2022-09-16T03:55:33.310Z,11.60
2022-09-16T04:00:35.519Z,13.93
2022-09-16T04:05:37.735Z,16.77
2022-09-16T04:10:39.920Z,11.30
2022-09-16T04:15:42.098Z,11.50
2022-09-16T04:20:44.331Z,15.70
2022-09-16T04:25:57.507Z,12.90
2022-09-16T04:31:03.977Z,11.27
2022-09-16T04:36:10.682Z,15.10
2022-09-16T04:41:13.769Z,10.63
2022-09-16T04:46:16.018Z,11.20
2022-09-16T04:51:19.660Z,10.13
2022-09-16T04:56:24.954Z,12.17
2022-09-16T05:01:29.047Z,11.60
2022-09-16T05:06:33.726Z,10.50
2022-09-16T05:11:38.895Z,10.53
2022-09-16T05:16:41.560Z,8.20
2022-09-16T05:21:43.789Z,10.53
2022-09-16T05:26:46.053Z,8.80
2022-09-16T05:31:48.517Z,10.30
2022-09-16T05:36:53.884Z,10.10
2022-09-16T05:41:57.487Z,11.20
2022-09-16T05:46:59.670Z,12.30
2022-09-16T05:52:02.521Z,9.80
2022-09-16T05:57:07.193Z,8.00
2022-09-16T06:02:12.229Z,13.47
2022-09-16T06:07:14.484Z,9.47
2022-09-16T06:12:16.770Z,6.67
2022-09-16T06:17:19.348Z,8.07
2022-09-16T06:22:21.731Z,9.87
2022-09-16T06:27:23.965Z,6.27
2022-09-16T06:32:26.163Z,7.00
2022-09-16T06:37:28.377Z,7.23
2022-09-16T06:42:30.672Z,6.70
2022-09-16T06:47:38.800Z,7.30
2022-09-16T06:52:41.000Z,10.50
2022-09-16T06:57:43.233Z,10.83
2022-09-16T07:02:45.494Z,10.23
2022-09-16T07:07:49.214Z,12.80
2022-09-16T07:12:51.576Z,13.17
2022-09-16T07:17:57.832Z,12.30
2022-09-16T07:23:00.075Z,10.10
2022-09-16T07:28:03.389Z,15.70
2022-09-16T07:33:05.679Z,14.03
2022-09-16T07:38:07.879Z,16.37
2022-09-16T07:43:10.249Z,15.40
2022-09-16T07:48:12.463Z,14.20
2022-09-16T07:53:14.695Z,12.80
2022-09-16T07:58:17.308Z,10.90
2022-09-16T08:03:19.544Z,18.73
2022-09-16T08:08:22.060Z,14.40
2022-09-16T08:13:24.727Z,12.30
2022-09-16T08:18:26.925Z,10.37
2022-09-16T08:23:29.795Z,10.27
2022-09-16T08:28:40.123Z,11.07
2022-09-16T08:33:53.322Z,22.47
2022-09-16T08:38:56.720Z,11.00
2022-09-16T08:44:11.183Z,9.93
2022-09-16T08:49:18.862Z,8.43
2022-09-16T08:54:31.634Z,8.17
2022-09-16T08:59:39.597Z,10.90
2022-09-16T09:04:41.909Z,8.10
2022-09-16T09:10:03.994Z,9.13
2022-09-16T09:15:08.111Z,8.57
2022-09-16T09:20:39.250Z,8.50
2022-09-16T09:25:55.251Z,7.37
2022-09-16T09:31:16.615Z,8.93
2022-09-16T09:36:26.891Z,8.67
2022-09-16T09:41:34.431Z,5.30
2022-09-16T09:46:40.105Z,6.20
2022-09-16T09:52:01.168Z,6.53
2022-09-16T09:57:05.477Z,4.20
2022-09-16T10:02:14.070Z,10.90
2022-09-16T10:07:21.085Z,7.73
2022-09-16T10:12:30.765Z,7.10
2022-09-16T10:17:33.483Z,6.87
2022-09-16T10:22:35.715Z,4.40
2022-09-16T10:27:38.822Z,5.40
2022-09-16T10:33:23.636Z,2.87
2022-09-16T10:38:27.973Z,1.80
2022-09-16T10:43:31.154Z,2.73
2022-09-16T10:48:35.641Z,3.97
2022-09-16T10:53:43.957Z,2.87
2022-09-16T10:58:47.276Z,1.90
2022-09-16T11:04:27.801Z,4.30
2022-09-16T11:09:30.051Z,2.63
2022-09-16T11:15:00.501Z,1.90
2022-09-16T11:20:06.004Z,2.20
2022-09-16T11:25:43.723Z,3.57
2022-09-16T11:31:04.205Z,2.90
2022-09-16T11:36:31.852Z,2.17
2022-09-16T11:41:59.941Z,5.00
2022-09-16T11:47:25.128Z,3.00
2022-09-16T11:53:04.319Z,2.50
2022-09-16T11:58:39.282Z,3.00
2022-09-16T12:03:56.048Z,5.20
2022-09-16T12:09:05.539Z,4.60
2022-09-16T12:14:53.317Z,5.57
2022-09-16T12:20:13.866Z,4.87
2022-09-16T12:25:22.952Z,4.93
2022-09-16T12:30:28.408Z,3.70
2022-09-16T12:40:53.258Z,3.90
2022-09-16T12:46:42.911Z,5.90
2022-09-16T12:52:17.605Z,4.80
2022-09-16T12:57:25.226Z,5.00
2022-09-16T13:02:34.258Z,4.70
2022-09-16T13:07:36.775Z,3.83
2022-09-16T13:12:43.966Z,5.53
2022-09-16T13:17:48.546Z,6.23
2022-09-16T13:23:26.687Z,4.97
2022-09-16T13:28:38.245Z,6.37
2022-09-16T13:33:42.010Z,4.83
2022-09-16T13:38:46.967Z,6.27
2022-09-16T13:43:53.886Z,8.80
2022-09-16T13:49:05.424Z,5.37
2022-09-16T13:54:19.559Z,7.90
2022-09-16T13:59:26.587Z,3.67
2022-09-16T14:04:41.661Z,4.07
2022-09-16T14:10:00.802Z,10.10
2022-09-16T14:15:03.338Z,7.20
2022-09-16T14:20:10.087Z,9.27
2022-09-16T14:25:29.326Z,5.37
2022-09-16T14:30:32.090Z,6.40
2022-09-16T14:35:34.082Z,7.33
2022-09-16T14:40:40.627Z,10.27
2022-09-16T14:45:46.674Z,6.33
2022-09-16T14:50:50.686Z,7.13
2022-09-16T15:01:09.047Z,6.70
2022-09-16T15:06:28.770Z,5.80
2022-09-16T15:11:47.754Z,4.70
2022-09-16T15:17:01.064Z,4.80
2022-09-16T15:22:04.346Z,6.70
2022-09-16T15:27:06.738Z,5.47
2022-09-16T15:32:23.360Z,4.80
2022-09-16T15:37:33.081Z,7.07
2022-09-16T15:42:35.397Z,5.17
2022-09-16T15:47:40.129Z,6.20
2022-09-16T15:53:10.357Z,6.83
2022-09-16T15:58:39.552Z,6.83
2022-09-16T16:03:55.600Z,6.67
2022-09-16T16:08:58.374Z,7.20
2022-09-16T16:14:02.037Z,8.43
2022-09-16T16:19:06.692Z,6.57
2022-09-16T16:24:08.925Z,7.73
2022-09-16T16:29:11.128Z,6.70
2022-09-16T16:34:13.332Z,9.20
2022-09-16T16:39:15.519Z,7.40
2022-09-16T16:44:17.791Z,5.50
2022-09-16T16:49:20.055Z,5.77
2022-09-16T16:54:22.849Z,9.20
2022-09-16T16:59:25.354Z,7.17
2022-09-16T17:04:27.860Z,16.33
2022-09-16T17:09:30.188Z,15.93
2022-09-16T17:14:33.333Z,11.13
2022-09-16T17:19:35.649Z,9.67
2022-09-16T17:24:37.918Z,9.90
2022-09-16T17:29:40.119Z,6.17
2022-09-16T17:34:42.389Z,5.23
2022-09-16T17:39:44.588Z,7.97
2022-09-16T17:44:46.873Z,6.27
2022-09-16T17:49:50.040Z,6.77
2022-09-16T17:54:52.236Z,7.33
2022-09-16T17:59:54.727Z,7.30
2022-09-16T18:04:57.096Z,8.30
2022-09-16T18:09:59.339Z,8.33
2022-09-16T18:15:01.749Z,10.13
2022-09-16T18:20:07.107Z,14.70
2022-09-16T18:25:10.080Z,16.47
2022-09-16T18:30:12.498Z,16.20
2022-09-16T18:35:15.072Z,11.73
2022-09-16T18:40:17.607Z,9.40
2022-09-16T18:45:19.941Z,9.77
2022-09-16T18:50:22.203Z,8.43
2022-09-16T18:55:26.068Z,8.57
2022-09-16T19:00:28.290Z,10.30
2022-09-16T19:05:30.482Z,7.50
2022-09-16T19:10:33.310Z,7.10
2022-09-16T19:15:35.607Z,12.03
2022-09-16T19:20:43.384Z,13.20
2022-09-16T19:25:45.913Z,9.30
2022-09-16T19:30:48.119Z,9.37
2022-09-16T19:35:50.327Z,7.67
2022-09-16T19:41:01.666Z,6.70
2022-09-16T19:46:09.434Z,11.07
2022-09-16T19:51:13.342Z,9.10
2022-09-16T19:56:21.269Z,9.77
2022-09-16T20:01:25.686Z,6.97
2022-09-16T20:06:30.750Z,5.70
2022-09-16T20:11:36.099Z,7.90
2022-09-16T20:16:39.408Z,9.20
2022-09-16T20:21:42.377Z,6.00
2022-09-16T20:26:44.959Z,6.30
2022-09-16T20:31:48.795Z,6.43
2022-09-16T20:36:51.358Z,10.93
2022-09-16T20:41:53.601Z,5.97
2022-09-16T20:46:55.842Z,6.10
2022-09-16T20:51:58.108Z,5.43
2022-09-16T20:57:00.288Z,6.30
2022-09-16T21:02:04.325Z,12.90
2022-09-16T21:07:06.538Z,4.93
2022-09-16T21:12:08.736Z,5.13
2022-09-16T21:17:11.483Z,4.90
2022-09-16T21:22:13.704Z,3.30
2022-09-16T21:27:16.367Z,2.37
2022-09-16T21:32:19.205Z,5.50
2022-09-16T21:37:21.797Z,4.60
2022-09-16T21:42:24.358Z,4.87
2022-09-16T21:47:29.451Z,3.53
2022-09-16T21:52:31.747Z,4.40
2022-09-16T21:57:33.938Z,4.57
2022-09-16T22:02:36.186Z,3.87
2022-09-16T22:07:38.412Z,3.20
2022-09-16T22:12:40.689Z,3.10
2022-09-16T22:17:49.958Z,3.03
2022-09-16T22:22:54.111Z,3.27
2022-09-16T22:27:56.505Z,3.60
2022-09-16T22:33:01.641Z,5.00
2022-09-16T22:38:04.512Z,4.40
2022-09-16T22:43:06.919Z,3.03
2022-09-16T22:48:09.207Z,4.23
2022-09-16T22:53:11.410Z,2.83
2022-09-16T22:58:13.618Z,2.87
2022-09-16T23:03:15.808Z,4.33
2022-09-16T23:08:18.085Z,3.47
2022-09-16T23:13:21.647Z,3.60
2022-09-16T23:18:23.845Z,2.63
2022-09-16T23:23:26.440Z,6.63
2022-09-16T23:28:28.655Z,4.90
2022-09-16T23:33:30.842Z,5.20
2022-09-16T23:38:34.936Z,4.00
2022-09-16T23:43:38.310Z,6.07
2022-09-16T23:48:40.903Z,3.97
2022-09-16T23:53:43.128Z,3.30
2022-09-16T23:58:45.561Z,5.77
